createdAt,value
2018-05-17T00:02:22.234Z,16.37
2018-05-17T00:05:27.456Z,16.17
2018-05-17T00:08:32.668Z,15.47
2018-05-17T00:11:37.897Z,18.00
2018-05-17T00:14:43.846Z,21.97
2018-05-17T00:17:50.520Z,16.33
2018-05-17T00:20:56.355Z,17.93
2018-05-17T00:24:01.572Z,14.73
2018-05-17T00:27:08.739Z,20.67
2018-05-17T00:30:13.967Z,11.50
2018-05-17T00:33:19.819Z,15.33
2018-05-17T00:36:25.238Z,22.57
2018-05-17T00:39:31.286Z,19.00
2018-05-17T00:42:37.421Z,16.67
2018-05-17T00:45:44.473Z,19.53
2018-05-17T00:48:51.273Z,15.63
2018-05-17T00:51:56.494Z,14.40
2018-05-17T00:55:01.708Z,18.00
2018-05-17T00:58:07.861Z,27.07
2018-05-17T01:01:13.108Z,20.07
2018-05-17T01:04:19.422Z,19.60
2018-05-17T01:07:25.217Z,16.30
2018-05-17T01:10:30.164Z,23.57
2018-05-17T01:13:36.317Z,16.13
2018-05-17T01:16:41.530Z,18.00
2018-05-17T01:19:47.965Z,23.97
2018-05-17T01:22:53.219Z,18.50
2018-05-17T01:25:59.198Z,17.10
2018-05-17T01:29:05.310Z,14.93
2018-05-17T01:32:10.745Z,17.23
2018-05-17T01:35:16.669Z,23.40
2018-05-17T01:38:25.947Z,20.90
2018-05-17T01:41:31.170Z,30.00
2018-05-17T01:44:37.005Z,24.57
2018-05-17T01:47:42.754Z,25.10
2018-05-17T01:50:48.800Z,21.70
2018-05-17T01:53:54.939Z,27.07
2018-05-17T01:57:00.151Z,25.97
2018-05-17T02:00:05.702Z,23.23
2018-05-17T02:03:11.016Z,24.27
2018-05-17T02:06:17.196Z,25.17
2018-05-17T02:09:23.015Z,15.17
2018-05-17T02:12:27.951Z,19.83
2018-05-17T02:15:34.098Z,23.03
2018-05-17T02:18:39.371Z,22.43
2018-05-17T02:21:44.867Z,18.27
2018-05-17T03:01:49.689Z,18.00
2018-05-17T03:04:55.148Z,28.60
2018-05-17T03:08:00.381Z,13.43
2018-05-17T03:11:06.157Z,32.10
2018-05-17T03:14:12.219Z,19.23
2018-05-17T03:17:17.423Z,25.57
2018-05-17T03:20:23.232Z,28.70
2018-05-17T03:23:28.457Z,39.60
2018-05-17T03:26:34.605Z,38.90
2018-05-17T03:29:39.812Z,26.00
2018-05-17T03:32:45.557Z,23.70
2018-05-17T03:35:50.763Z,29.17
2018-05-17T03:38:56.793Z,21.70
2018-05-17T03:42:02.908Z,30.97
2018-05-17T03:45:08.338Z,20.77
2018-05-17T03:48:14.097Z,24.20
2018-05-17T03:51:19.315Z,35.67
2018-05-17T03:54:25.437Z,21.97
2018-05-17T03:57:32.176Z,19.67
2018-05-17T04:00:49.000Z,35.43
2018-05-17T04:04:05.969Z,31.40
2018-05-17T04:07:11.545Z,27.13
2018-05-17T04:10:16.498Z,20.27
2018-05-17T04:13:21.701Z,33.37
2018-05-17T04:16:28.743Z,24.33
2018-05-17T04:19:35.602Z,24.80
2018-05-17T04:22:41.137Z,21.80
2018-05-17T04:25:47.344Z,27.57
2018-05-17T04:28:53.168Z,27.80
2018-05-17T04:31:58.380Z,38.47
2018-05-17T04:35:03.643Z,31.10
2018-05-17T04:38:08.847Z,26.43
2018-05-17T04:41:14.988Z,28.13
2018-05-17T04:44:20.217Z,31.43
2018-05-17T04:47:25.438Z,34.20
2018-05-17T04:50:31.379Z,26.67
2018-05-17T04:53:37.449Z,27.57
2018-05-17T04:56:42.660Z,24.63
2018-05-17T04:59:47.864Z,45.23
2018-05-17T05:02:53.099Z,46.97
2018-05-17T05:05:59.312Z,37.10
2018-05-17T05:09:03.954Z,36.10
2018-05-17T05:12:09.170Z,45.20
2018-05-17T05:15:16.010Z,32.40
2018-05-17T05:18:21.812Z,28.30
2018-05-17T05:21:26.741Z,27.50
2018-05-17T05:24:31.956Z,33.13
2018-05-17T05:27:37.210Z,23.50
2018-05-17T05:30:43.275Z,28.10
2018-05-17T05:33:49.297Z,26.00
2018-05-17T05:36:55.342Z,39.70
2018-05-17T05:40:00.548Z,22.03
2018-05-17T05:43:06.520Z,33.67
2018-05-17T05:46:12.346Z,53.83
2018-05-17T05:49:17.554Z,33.07
2018-05-17T05:52:22.980Z,26.90
2018-05-17T05:55:28.705Z,36.87
2018-05-17T05:58:33.925Z,30.30
2018-05-17T06:01:39.528Z,29.10
2018-05-17T06:04:45.168Z,27.27
2018-05-17T06:07:50.417Z,25.03
2018-05-17T06:10:56.058Z,40.73
2018-05-17T06:14:02.231Z,27.67
2018-05-17T06:17:07.480Z,33.97
2018-05-17T06:20:13.192Z,32.17
2018-05-17T06:23:18.664Z,28.47
2018-05-17T06:26:24.784Z,36.63
2018-05-17T06:29:30.021Z,20.93
2018-05-17T06:32:35.970Z,24.23
2018-05-17T06:35:41.709Z,34.10
2018-05-17T06:38:46.662Z,27.10
2018-05-17T06:41:52.385Z,33.03
2018-05-17T06:44:58.515Z,26.67
2018-05-17T06:48:04.132Z,38.57
2018-05-17T06:51:10.072Z,33.87
2018-05-17T06:54:16.938Z,27.87
2018-05-17T06:57:22.756Z,20.67
2018-05-17T07:00:28.500Z,28.47
2018-05-17T07:03:34.236Z,45.67
2018-05-17T07:06:41.287Z,28.43
2018-05-17T07:09:47.110Z,33.37
2018-05-17T07:12:52.804Z,31.37
2018-05-17T07:15:58.926Z,34.07
2018-05-17T07:19:04.134Z,34.80
2018-05-17T07:22:10.258Z,23.53
2018-05-17T07:25:15.888Z,23.23
2018-05-17T07:28:21.606Z,42.67
2018-05-17T07:31:27.587Z,35.13
2018-05-17T07:34:32.981Z,30.80
2018-05-17T07:37:38.731Z,38.63
2018-05-17T07:40:43.988Z,33.87
2018-05-17T07:43:49.172Z,31.40
2018-05-17T07:46:54.852Z,24.27
2018-05-17T07:50:00.869Z,40.77
2018-05-17T07:53:06.615Z,32.33
2018-05-17T07:56:12.377Z,35.00
2018-05-17T07:59:18.499Z,43.73
2018-05-17T08:02:24.645Z,41.33
2018-05-17T08:05:30.729Z,33.70
2018-05-17T08:08:36.848Z,30.53
2018-05-17T08:11:42.780Z,32.93
2018-05-17T08:14:48.877Z,37.67
2018-05-17T08:17:55.060Z,25.80
2018-05-17T08:21:01.404Z,19.23
2018-05-17T08:24:06.608Z,22.33
2018-05-17T08:27:11.834Z,24.57
2018-05-17T08:30:17.234Z,30.63
2018-05-17T08:33:23.376Z,30.87
2018-05-17T08:36:28.680Z,37.47
2018-05-17T08:39:34.013Z,33.20
2018-05-17T08:42:40.995Z,28.07
2018-05-17T08:45:46.920Z,29.17
2018-05-17T08:48:52.646Z,23.40
2018-05-17T08:51:58.286Z,29.60
2018-05-17T08:55:04.373Z,32.80
2018-05-17T08:58:10.509Z,31.10
2018-05-17T09:01:16.643Z,31.13
2018-05-17T09:04:22.685Z,25.00
2018-05-17T09:07:28.813Z,33.40
2018-05-17T09:10:34.832Z,30.20
2018-05-17T09:13:41.073Z,27.47
2018-05-17T09:16:46.458Z,33.97
2018-05-17T09:19:52.184Z,30.40
2018-05-17T09:22:58.317Z,36.77
2018-05-17T09:26:04.108Z,29.67
2018-05-17T09:29:09.345Z,31.03
2018-05-17T09:32:15.589Z,33.37
2018-05-17T09:35:21.524Z,36.70
2018-05-17T09:38:26.809Z,29.33
2018-05-17T09:41:32.071Z,33.43
2018-05-17T09:44:38.348Z,30.37
2018-05-17T09:47:44.686Z,31.60
2018-05-17T09:50:50.899Z,31.23
2018-05-17T09:53:57.959Z,33.47
2018-05-17T09:57:03.338Z,32.57
2018-05-17T10:00:09.244Z,26.60
2018-05-17T10:03:14.453Z,26.53
2018-05-17T10:06:19.660Z,29.03
2018-05-17T10:09:24.882Z,34.47
2018-05-17T10:12:30.018Z,26.03
2018-05-17T10:15:36.129Z,30.30
2018-05-17T10:18:42.251Z,28.40
2018-05-17T10:21:49.219Z,34.60
2018-05-17T10:24:54.481Z,28.40
2018-05-17T10:27:59.724Z,41.27
2018-05-17T10:31:06.684Z,27.50
2018-05-17T10:34:14.411Z,22.00
2018-05-17T10:37:19.622Z,28.63
2018-05-17T10:40:24.845Z,30.03
2018-05-17T10:43:30.062Z,38.57
2018-05-17T10:46:35.263Z,40.23
2018-05-17T10:49:40.506Z,30.67
2018-05-17T10:52:45.704Z,27.83
2018-05-17T10:55:50.920Z,30.90
2018-05-17T10:58:56.128Z,27.47
2018-05-17T11:02:01.761Z,23.13
2018-05-17T11:05:07.880Z,29.00
2018-05-17T11:08:14.997Z,27.90
2018-05-17T11:11:20.201Z,28.40
2018-05-17T11:14:26.212Z,33.67
2018-05-17T11:17:31.432Z,41.23
2018-05-17T11:20:37.164Z,29.07
2018-05-17T11:23:42.393Z,31.03
2018-05-17T11:26:47.600Z,25.63
2018-05-17T11:29:53.752Z,27.67
2018-05-17T11:32:59.026Z,28.67
2018-05-17T11:36:04.399Z,27.30
2018-05-17T11:39:09.277Z,26.83
2018-05-17T11:42:14.914Z,30.27
2018-05-17T11:45:21.047Z,39.00
2018-05-17T11:48:27.061Z,37.17
2018-05-17T11:51:33.114Z,36.13
2018-05-17T11:54:38.748Z,26.60
2018-05-17T11:57:43.684Z,45.70
2018-05-17T12:00:49.753Z,26.20
2018-05-17T12:03:55.602Z,24.40
2018-05-17T12:07:00.828Z,35.63
2018-05-17T12:10:06.273Z,29.73
2018-05-17T12:13:11.476Z,27.03
2018-05-17T12:16:16.688Z,32.10
2018-05-17T12:19:22.344Z,36.20
2018-05-17T12:22:28.221Z,29.97
2018-05-17T12:25:33.881Z,31.53
2018-05-17T12:28:39.088Z,22.53
2018-05-17T12:31:45.319Z,33.30
2018-05-17T12:34:51.292Z,29.93
2018-05-17T12:37:57.864Z,35.33
2018-05-17T12:41:04.421Z,25.10
2018-05-17T12:44:09.633Z,28.33
2018-05-17T12:47:15.654Z,22.17
2018-05-17T12:50:20.859Z,23.87
2018-05-17T12:53:26.912Z,21.13
2018-05-17T12:56:32.936Z,28.57
2018-05-17T12:59:39.103Z,25.30
2018-05-17T13:02:45.235Z,27.27
2018-05-17T13:05:50.658Z,26.10
2018-05-17T13:08:55.872Z,21.83
2018-05-17T13:12:01.898Z,24.03
2018-05-17T13:15:07.524Z,18.23
2018-05-17T13:18:13.558Z,24.00
2018-05-17T13:21:19.499Z,21.17
2018-05-17T13:24:24.728Z,20.47
2018-05-17T13:27:30.852Z,20.73
2018-05-17T13:30:37.509Z,20.43
2018-05-17T13:33:43.121Z,28.70
2018-05-17T13:36:49.082Z,26.27
2018-05-17T13:39:55.021Z,23.17
2018-05-17T13:43:00.236Z,31.27
2018-05-17T13:46:06.314Z,30.63
2018-05-17T13:49:12.165Z,30.40
2018-05-17T13:52:18.166Z,29.57
2018-05-17T13:55:24.263Z,27.77
2018-05-17T13:58:30.208Z,44.43
2018-05-17T14:01:35.422Z,31.23
2018-05-17T14:04:41.174Z,31.50
2018-05-17T14:07:46.818Z,37.90
2018-05-17T14:10:52.861Z,35.67
2018-05-17T14:13:58.070Z,39.07
2018-05-17T14:17:03.286Z,31.60
2018-05-17T14:20:09.046Z,28.60
2018-05-17T14:23:14.291Z,27.30
2018-05-17T14:26:19.681Z,29.47
2018-05-17T14:29:26.388Z,27.10
2018-05-17T14:32:31.577Z,23.27
2018-05-17T14:35:36.793Z,19.20
2018-05-17T14:38:42.937Z,23.13
2018-05-17T14:41:48.333Z,28.23
2018-05-17T14:44:54.458Z,19.90
2018-05-17T14:48:00.576Z,22.77
2018-05-17T14:51:07.449Z,29.40
2018-05-17T14:54:13.753Z,17.83
2018-05-17T14:57:19.391Z,32.10
2018-05-17T15:00:25.540Z,27.53
2018-05-17T15:03:31.569Z,20.10
2018-05-17T15:06:37.696Z,26.20
2018-05-17T15:09:43.724Z,25.50
2018-05-17T15:12:48.928Z,17.40
2018-05-17T15:15:54.562Z,34.07
2018-05-17T15:18:59.761Z,27.43
2018-05-17T15:22:04.632Z,22.63
2018-05-17T15:25:11.212Z,21.30
2018-05-17T15:28:17.067Z,32.10
2018-05-17T15:31:23.911Z,25.70
2018-05-17T15:34:29.138Z,32.60
2018-05-17T15:37:34.340Z,30.83
2018-05-17T15:40:39.765Z,26.53
2018-05-17T15:43:44.966Z,24.90
2018-05-17T15:46:50.177Z,22.07
2018-05-17T15:49:55.794Z,21.40
2018-05-17T15:53:02.546Z,23.60
2018-05-17T15:56:08.469Z,30.03
2018-05-17T15:59:14.090Z,25.37
2018-05-17T16:02:20.782Z,23.20
2018-05-17T16:05:26.163Z,26.00
2018-05-17T16:08:30.862Z,22.67
2018-05-17T16:11:35.980Z,20.60
2018-05-17T16:14:40.979Z,26.53
2018-05-17T16:17:46.949Z,15.47
2018-05-17T16:20:52.913Z,25.00
2018-05-17T16:23:58.431Z,20.40
2018-05-17T16:27:04.429Z,27.87
2018-05-17T16:30:10.266Z,17.10
2018-05-17T16:33:16.472Z,19.90
2018-05-17T16:36:21.721Z,21.07
2018-05-17T16:39:29.757Z,31.07
2018-05-17T16:42:38.391Z,19.70
2018-05-17T16:45:45.312Z,18.93
2018-05-17T16:48:51.552Z,20.33
2018-05-17T16:51:56.532Z,20.17
2018-05-17T16:55:02.521Z,27.57
2018-05-17T16:58:07.759Z,17.70
2018-05-17T17:01:14.152Z,25.90
2018-05-17T17:04:19.396Z,19.10
2018-05-17T17:07:28.110Z,18.87
2018-05-17T17:10:34.253Z,13.33
2018-05-17T17:13:40.746Z,16.90
2018-05-17T17:16:48.216Z,19.50
2018-05-17T17:19:54.229Z,14.30
2018-05-17T17:23:01.112Z,23.23
2018-05-17T17:26:06.936Z,25.47
2018-05-17T17:29:13.809Z,28.40
2018-05-17T17:32:19.019Z,14.67
2018-05-17T17:35:25.161Z,18.73
2018-05-17T17:38:30.888Z,16.63
2018-05-17T17:41:36.134Z,22.30
2018-05-17T17:44:41.987Z,12.33
2018-05-17T17:47:47.221Z,17.83
2018-05-17T17:50:52.904Z,21.53
2018-05-17T17:53:58.721Z,13.13
2018-05-17T17:57:03.725Z,17.63
2018-05-17T18:00:08.962Z,18.87
2018-05-17T18:03:14.189Z,24.33
2018-05-17T18:06:20.041Z,14.77
2018-05-17T18:09:26.387Z,28.63
2018-05-17T18:12:33.065Z,16.47
2018-05-17T18:15:38.268Z,21.90
2018-05-17T18:18:43.320Z,24.97
2018-05-17T18:21:48.172Z,31.30
2018-05-17T18:24:54.023Z,19.83
2018-05-17T18:28:00.128Z,21.77
2018-05-17T18:31:05.579Z,33.90
2018-05-17T18:34:10.808Z,42.10
2018-05-17T18:37:16.012Z,29.97
2018-05-17T18:40:22.032Z,34.53
2018-05-17T18:43:27.859Z,34.00
2018-05-17T18:46:34.267Z,31.90
2018-05-17T18:49:40.185Z,27.53
2018-05-17T18:52:45.410Z,32.47
2018-05-17T18:55:51.869Z,50.90
2018-05-17T18:58:56.905Z,42.93
2018-05-17T19:02:02.121Z,32.10
2018-05-17T19:05:08.086Z,36.40
2018-05-17T19:08:13.296Z,52.90
2018-05-17T19:11:19.133Z,37.40
2018-05-17T19:14:24.899Z,48.73
2018-05-17T19:17:30.341Z,38.83
2018-05-17T19:20:35.544Z,47.30
2018-05-17T19:23:41.392Z,47.70
2018-05-17T19:26:47.123Z,50.67
2018-05-17T19:29:52.356Z,44.03
2018-05-17T19:32:58.433Z,43.27
2018-05-17T19:36:03.643Z,44.17
2018-05-17T19:39:09.805Z,45.90
2018-05-17T19:42:16.433Z,37.57
2018-05-17T19:45:21.899Z,43.30
2018-05-17T19:48:27.919Z,56.77
2018-05-17T19:51:33.686Z,53.13
2018-05-17T19:54:39.431Z,51.40
2018-05-17T19:57:44.662Z,41.70
2018-05-17T20:00:50.856Z,46.47
2018-05-17T20:03:56.147Z,55.83
2018-05-17T20:07:01.948Z,67.00
2018-05-17T20:10:07.187Z,59.60
2018-05-17T20:13:13.498Z,50.20
2018-05-17T20:16:20.557Z,44.13
2018-05-17T20:19:25.768Z,43.43
2018-05-17T20:22:31.853Z,37.50
2018-05-17T20:25:37.092Z,53.13
2018-05-17T20:28:42.310Z,40.60
2018-05-17T20:31:47.545Z,37.20
2018-05-17T20:34:52.755Z,37.87
2018-05-17T20:37:58.822Z,34.93
2018-05-17T20:41:03.803Z,27.20
2018-05-17T20:44:09.832Z,31.20
2018-05-17T20:47:15.549Z,39.17
2018-05-17T20:50:20.760Z,40.43
2018-05-17T20:53:26.908Z,36.83
2018-05-17T20:56:33.030Z,43.27
2018-05-17T20:59:38.341Z,27.40
2018-05-17T21:02:44.274Z,38.87
2018-05-17T21:05:50.400Z,47.23
2018-05-17T21:08:56.037Z,27.53
2018-05-17T21:12:02.156Z,32.30
2018-05-17T21:15:07.459Z,33.13
2018-05-17T21:18:12.662Z,34.20
2018-05-17T21:21:18.577Z,30.43
2018-05-17T21:24:24.518Z,34.73
2018-05-17T21:27:29.735Z,29.93
2018-05-17T21:30:34.957Z,26.63
2018-05-17T21:33:40.156Z,34.03
2018-05-17T21:36:45.398Z,29.10
2018-05-17T21:39:50.601Z,29.10
2018-05-17T21:42:56.788Z,42.03
2018-05-17T21:46:02.426Z,32.03
2018-05-17T21:49:07.638Z,22.57
2018-05-17T21:52:13.391Z,33.57
2018-05-17T21:55:19.120Z,35.77
2018-05-17T21:58:24.864Z,16.50
2018-05-17T22:01:31.314Z,33.33
2018-05-17T22:04:36.949Z,22.87
2018-05-17T22:07:42.800Z,37.13
2018-05-17T22:10:48.936Z,23.40
2018-05-17T22:13:54.242Z,27.77
2018-05-17T22:17:00.093Z,22.57
2018-05-17T22:20:05.310Z,32.60
2018-05-17T22:23:10.524Z,26.40
2018-05-17T22:26:16.650Z,34.17
2018-05-17T22:29:22.801Z,27.63
2018-05-17T22:32:28.419Z,31.43
2018-05-17T22:35:34.428Z,32.30
2018-05-17T22:38:40.548Z,31.20
2018-05-17T22:41:45.452Z,26.13
2018-05-17T22:44:50.660Z,31.13
2018-05-17T22:47:56.557Z,26.63
2018-05-17T22:51:02.181Z,21.30
2018-05-17T22:54:07.112Z,25.13
2018-05-17T22:57:13.477Z,22.13
2018-05-17T23:00:18.930Z,24.87
2018-05-17T23:03:24.529Z,21.87
2018-05-17T23:06:29.695Z,22.57
2018-05-17T23:09:35.100Z,31.03
2018-05-17T23:12:40.547Z,28.13
2018-05-17T23:15:46.565Z,19.30
2018-05-17T23:18:51.776Z,28.20
2018-05-17T23:21:56.718Z,28.80
2018-05-17T23:25:01.931Z,23.00
2018-05-17T23:28:07.354Z,21.97
2018-05-17T23:31:12.564Z,23.10
2018-05-17T23:34:17.970Z,32.80
2018-05-17T23:37:23.763Z,26.43
2018-05-17T23:44:03.316Z,18.60
2018-05-17T23:47:09.329Z,26.10
2018-05-17T23:50:16.256Z,26.30
2018-05-17T23:53:22.075Z,18.07
2018-05-17T23:56:28.237Z,19.53
2018-05-17T23:59:33.455Z,22.00
